RKSS/GMP METAR and TAF weather

Enter ICAO airport designator
Station Type Date Time Source
RKSS METAR 2019/08/17 10:00 UTC NOAA

RKSS 171000Z 27008KT 9999 FEW035 26/19 Q1001 NOSIG


Station Type Date Time Source
RKSS Decoded METAR 2019/08/17 10:00 UTC NOAA

Station name not available
Aug 17, 2019 - 06:00 AM EDT / 2019.08.17 1000 UTC
Wind: from the W (270 degrees) at 9 MPH (8 KT):0
Visibility: greater than 7 mile(s):0
Sky conditions: mostly clear
Temperature: 78 F (26 C)
Dew Point: 66 F (19 C)
Relative Humidity: 65%
Pressure (altimeter): 29.56 in. Hg (1001 hPa)
ob: RKSS 171000Z 27008KT 9999 FEW035 26/19 Q1001 NOSIG
cycle: 10

Station Type Date Time Source
RKSS TAF 2019/08/17 06:09 UTC NOAA

TAF RKSS 170500Z 1706/1812 26008KT 9999 SCT030 TN21/1720Z TX29/1806Z
TEMPO 1706/1709 BKN030
BECMG 1719/1720 20005KT 6000
BECMG 1801/1802 27007KT 9999

Example: see airport list